createdAt,value
2023-02-18T00:01:09.878Z,4.20
2023-02-18T00:03:37.438Z,4.50
2023-02-18T00:06:14.131Z,4.13
2023-02-18T00:08:42.460Z,3.70
2023-02-18T00:11:09.997Z,4.50
2023-02-18T00:13:37.544Z,4.23
2023-02-18T00:16:06.413Z,3.97
2023-02-18T00:18:33.545Z,3.90
2023-02-18T00:21:01.044Z,4.13
2023-02-18T00:23:28.614Z,3.90
2023-02-18T00:26:02.033Z,4.00
2023-02-18T00:28:29.543Z,3.80
2023-02-18T00:30:57.967Z,4.10
2023-02-18T00:33:25.432Z,3.77
2023-02-18T00:35:52.980Z,3.70
2023-02-18T00:38:20.547Z,3.20
2023-02-18T00:40:48.063Z,3.60
2023-02-18T00:43:15.592Z,3.00
2023-02-18T00:45:43.170Z,3.37
2023-02-18T00:48:11.473Z,3.45
2023-02-18T00:50:38.998Z,2.50
2023-02-18T00:53:07.363Z,2.70
2023-02-18T00:55:34.896Z,2.47
2023-02-18T00:58:02.444Z,3.08
2023-02-18T01:00:29.995Z,2.43
2023-02-18T01:02:57.541Z,2.00
2023-02-18T01:05:25.065Z,2.10
2023-02-18T01:07:52.632Z,1.83
2023-02-18T01:10:20.925Z,1.70
2023-02-18T01:12:48.449Z,1.67
2023-02-18T01:15:16.007Z,1.53
2023-02-18T01:17:43.582Z,1.50
2023-02-18T01:20:11.133Z,1.50
2023-02-18T01:22:38.688Z,1.30
2023-02-18T01:25:06.243Z,1.20
2023-02-18T01:27:33.760Z,1.52
2023-02-18T01:30:01.320Z,1.30
2023-02-18T01:32:28.841Z,1.17
2023-02-18T01:34:57.152Z,1.40
2023-02-18T01:37:24.713Z,1.60
2023-02-18T01:39:52.266Z,1.70
2023-02-18T01:42:22.502Z,1.20
2023-02-18T01:44:50.083Z,1.87
2023-02-18T01:47:17.624Z,1.27
2023-02-18T01:49:45.160Z,1.67
2023-02-18T01:52:12.759Z,1.80
2023-02-18T01:54:40.288Z,1.73
2023-02-18T01:57:13.760Z,2.03
2023-02-18T01:59:41.322Z,1.77
2023-02-18T02:02:09.663Z,1.90
2023-02-18T02:04:37.180Z,2.10
2023-02-18T02:07:04.753Z,7.47
2023-02-18T02:09:32.278Z,3.33
2023-02-18T02:12:33.526Z,2.10
2023-02-18T02:15:09.721Z,2.10
2023-02-18T02:18:07.989Z,2.20
2023-02-18T02:20:50.611Z,2.20
2023-02-18T02:23:39.521Z,2.20
2023-02-18T02:26:32.050Z,2.17
2023-02-18T02:29:21.372Z,2.30
2023-02-18T02:31:51.895Z,2.62
2023-02-18T02:34:27.990Z,2.60
2023-02-18T02:37:07.529Z,2.42
2023-02-18T02:39:40.703Z,1.97
2023-02-18T02:42:32.500Z,2.17
2023-02-18T02:45:25.153Z,1.97
2023-02-18T02:47:53.318Z,1.80
2023-02-18T02:50:20.845Z,1.20
2023-02-18T02:52:51.442Z,1.30
2023-02-18T02:55:18.985Z,1.80
2023-02-18T02:57:49.158Z,1.37
2023-02-18T03:00:16.751Z,1.23
2023-02-18T03:02:59.030Z,1.30
2023-02-18T03:05:38.215Z,1.50
2023-02-18T03:08:05.748Z,1.50
2023-02-18T03:10:51.910Z,1.10
2023-02-18T03:13:19.444Z,1.43
2023-02-18T03:15:46.968Z,1.30
2023-02-18T03:18:38.882Z,1.17
2023-02-18T03:21:09.577Z,1.30
2023-02-18T03:23:45.828Z,1.30
2023-02-18T03:26:13.381Z,1.23
2023-02-18T03:28:40.896Z,1.67
2023-02-18T03:31:14.544Z,1.30
2023-02-18T03:33:57.835Z,1.30
2023-02-18T03:36:25.388Z,1.23
2023-02-18T03:38:55.621Z,1.23
2023-02-18T03:41:23.158Z,1.70
2023-02-18T03:43:51.479Z,1.33
2023-02-18T03:46:19.017Z,1.97
2023-02-18T03:48:47.310Z,2.27
2023-02-18T03:51:14.841Z,2.70
2023-02-18T03:53:42.404Z,2.57
2023-02-18T03:56:10.190Z,3.00
2023-02-18T03:58:37.441Z,3.27
2023-02-18T04:01:05.003Z,3.80
2023-02-18T04:03:33.279Z,3.33
2023-02-18T04:06:00.818Z,3.20
2023-02-18T04:08:28.346Z,3.70
2023-02-18T04:10:56.652Z,3.60
2023-02-18T04:13:24.537Z,4.43
2023-02-18T04:15:52.083Z,4.30
2023-02-18T04:18:19.645Z,4.70
2023-02-18T04:20:47.948Z,4.43
2023-02-18T04:23:15.740Z,4.30
2023-02-18T04:25:43.273Z,4.60
2023-02-18T04:28:10.847Z,4.10
2023-02-18T04:30:38.510Z,4.30
2023-02-18T04:33:05.917Z,4.40
2023-02-18T04:35:33.475Z,4.40
2023-02-18T04:38:01.008Z,4.60
2023-02-18T04:40:29.319Z,3.83
2023-02-18T04:42:56.904Z,3.70
2023-02-18T04:45:24.419Z,4.13
2023-02-18T04:47:51.944Z,3.73
2023-02-18T04:50:19.500Z,4.00
2023-02-18T04:52:47.043Z,3.77
2023-02-18T04:55:14.567Z,3.70
2023-02-18T04:57:42.121Z,4.68
2023-02-18T05:00:09.783Z,4.30
2023-02-18T05:02:37.329Z,4.00
2023-02-18T05:05:05.635Z,4.07
2023-02-18T05:07:33.191Z,3.93
2023-02-18T05:10:00.705Z,4.00
2023-02-18T05:12:28.284Z,3.60
2023-02-18T05:14:56.584Z,4.37
2023-02-18T05:17:24.128Z,3.67
2023-02-18T05:19:51.664Z,3.70
2023-02-18T05:22:19.977Z,4.30
2023-02-18T05:24:47.502Z,3.63
2023-02-18T05:27:15.091Z,3.63
2023-02-18T05:29:42.622Z,3.27
2023-02-18T05:32:10.933Z,3.40
2023-02-18T05:34:38.479Z,3.03
2023-02-18T05:37:06.012Z,2.93
2023-02-18T05:39:34.317Z,2.93
2023-02-18T05:42:01.898Z,2.70
2023-02-18T05:44:31.892Z,2.90
2023-02-18T05:47:02.196Z,2.80
2023-02-18T05:49:30.534Z,3.00
2023-02-18T05:51:58.064Z,2.20
2023-02-18T05:54:25.587Z,2.73
2023-02-18T05:56:53.940Z,2.50
2023-02-18T05:59:21.461Z,2.73
2023-02-18T06:01:48.992Z,2.77
2023-02-18T06:04:17.323Z,2.60
2023-02-18T06:06:44.846Z,2.80
2023-02-18T06:09:12.380Z,2.77
2023-02-18T06:11:41.510Z,2.53
2023-02-18T06:14:09.048Z,2.97
2023-02-18T06:16:36.592Z,2.63
2023-02-18T06:19:04.948Z,2.60
2023-02-18T06:21:32.469Z,2.50
2023-02-18T06:24:00.001Z,3.60
2023-02-18T06:26:27.694Z,2.90
2023-02-18T06:28:55.237Z,2.97
2023-02-18T06:31:22.821Z,2.93
2023-02-18T06:33:51.391Z,2.97
2023-02-18T06:36:19.675Z,3.10
2023-02-18T06:38:47.211Z,3.37
2023-02-18T06:41:14.779Z,2.97
2023-02-18T06:43:42.312Z,3.20
2023-02-18T06:46:10.277Z,3.20
2023-02-18T06:48:37.420Z,3.10
2023-02-18T06:51:04.961Z,3.17
2023-02-18T06:53:32.508Z,3.10
2023-02-18T06:56:00.084Z,2.50
2023-02-18T06:58:27.597Z,2.60
2023-02-18T07:00:55.183Z,3.10
2023-02-18T07:03:22.754Z,3.03
2023-02-18T07:05:50.251Z,2.13
2023-02-18T07:08:17.808Z,2.10
2023-02-18T07:10:46.512Z,2.23
2023-02-18T07:13:14.061Z,1.90
2023-02-18T07:15:41.591Z,2.00
2023-02-18T07:18:09.189Z,1.83
2023-02-18T07:20:36.711Z,1.90
2023-02-18T07:23:05.024Z,1.70
2023-02-18T07:25:32.598Z,1.63
2023-02-18T07:28:00.173Z,1.57
2023-02-18T07:30:27.733Z,1.80
2023-02-18T07:32:55.279Z,1.73
2023-02-18T07:35:22.804Z,1.27
2023-02-18T07:37:50.361Z,1.23
2023-02-18T07:40:18.685Z,1.03
2023-02-18T07:42:46.219Z,1.03
2023-02-18T07:45:13.756Z,0.90
2023-02-18T07:47:41.316Z,0.90
2023-02-18T07:50:08.842Z,0.90
2023-02-18T07:52:37.145Z,0.67
2023-02-18T07:55:04.740Z,0.63
2023-02-18T07:57:32.243Z,0.73
2023-02-18T08:00:00.547Z,0.50
2023-02-18T08:02:28.179Z,0.57
2023-02-18T08:04:55.643Z,0.50
2023-02-18T08:07:23.957Z,0.67
2023-02-18T08:09:51.531Z,0.80
2023-02-18T08:12:19.058Z,0.63
2023-02-18T08:14:46.604Z,0.77
2023-02-18T08:17:14.181Z,0.90
2023-02-18T08:19:41.714Z,1.20
2023-02-18T08:22:10.022Z,1.10
2023-02-18T08:24:37.592Z,0.80
2023-02-18T08:27:05.140Z,0.97
2023-02-18T08:29:32.663Z,1.23
2023-02-18T08:32:00.243Z,1.20
2023-02-18T08:34:28.530Z,1.20
2023-02-18T08:36:56.085Z,1.20
2023-02-18T08:39:23.672Z,1.40
2023-02-18T08:41:51.192Z,1.20
2023-02-18T08:44:18.716Z,1.50
2023-02-18T08:46:46.791Z,1.70
2023-02-18T08:49:14.160Z,1.63
2023-02-18T08:51:42.451Z,1.60
2023-02-18T08:54:10.785Z,1.67
2023-02-18T08:56:38.330Z,1.60
2023-02-18T08:59:05.866Z,4.00
2023-02-18T09:01:33.515Z,2.93
2023-02-18T09:04:01.037Z,1.90
2023-02-18T09:06:28.521Z,1.98
2023-02-18T09:08:56.860Z,1.77
2023-02-18T09:11:26.014Z,1.77
2023-02-18T09:13:51.970Z,2.70
2023-02-18T09:16:19.541Z,2.50
2023-02-18T09:18:47.047Z,1.87
2023-02-18T09:21:14.593Z,1.83
2023-02-18T09:26:05.517Z,2.90
2023-02-18T09:28:33.044Z,2.30
2023-02-18T09:31:06.791Z,4.70
2023-02-18T09:33:36.732Z,1.80
2023-02-18T09:36:04.331Z,2.13
2023-02-18T09:38:31.840Z,1.67
2023-02-18T09:40:59.419Z,2.00
2023-02-18T09:43:29.872Z,2.13
2023-02-18T09:45:58.205Z,1.50
2023-02-18T09:48:26.694Z,2.00
2023-02-18T09:50:53.268Z,1.70
2023-02-18T09:53:21.567Z,1.23
2023-02-18T09:55:49.255Z,1.60
2023-02-18T09:58:16.794Z,1.87
2023-02-18T10:00:44.340Z,2.07
2023-02-18T10:03:18.391Z,1.60
2023-02-18T10:06:00.814Z,1.40
2023-02-18T10:08:28.389Z,1.43
2023-02-18T10:10:55.914Z,1.58
2023-02-18T10:13:23.438Z,2.03
2023-02-18T10:15:51.322Z,1.27
2023-02-18T10:18:27.740Z,1.40
2023-02-18T10:20:57.978Z,2.00
2023-02-18T10:23:25.513Z,1.70
2023-02-18T10:25:53.058Z,1.83
2023-02-18T10:28:20.996Z,2.05
2023-02-18T10:30:48.571Z,1.70
2023-02-18T10:33:19.876Z,1.73
2023-02-18T10:35:54.086Z,1.90
2023-02-18T10:38:43.953Z,2.33
2023-02-18T10:41:11.540Z,2.03
2023-02-18T10:43:42.600Z,2.03
2023-02-18T10:46:29.251Z,1.63
2023-02-18T10:49:33.883Z,1.80
2023-02-18T10:52:01.741Z,2.33
2023-02-18T10:54:29.241Z,1.70
2023-02-18T10:56:59.711Z,1.93
2023-02-18T10:59:27.273Z,2.23
2023-02-18T11:02:00.734Z,1.97
2023-02-18T11:04:29.022Z,1.83
2023-02-18T11:06:57.352Z,2.20
2023-02-18T11:09:27.907Z,2.40
2023-02-18T11:12:08.481Z,2.03
2023-02-18T11:14:40.098Z,1.90
2023-02-18T11:17:22.677Z,2.07
2023-02-18T11:19:56.033Z,2.00
2023-02-18T11:22:23.568Z,1.77
2023-02-18T11:24:56.566Z,2.40
2023-02-18T11:27:24.876Z,2.05
2023-02-18T11:29:52.403Z,1.90
2023-02-18T11:32:20.801Z,1.80
2023-02-18T11:34:48.291Z,1.90
2023-02-18T11:37:18.613Z,1.92
2023-02-18T11:39:46.185Z,1.80
2023-02-18T11:42:13.729Z,1.80
2023-02-18T11:44:41.287Z,1.30
2023-02-18T11:47:14.647Z,1.60
2023-02-18T11:49:42.185Z,1.90
2023-02-18T11:52:25.087Z,1.97
2023-02-18T11:55:13.851Z,1.80
2023-02-18T11:57:41.420Z,1.27
2023-02-18T12:00:14.643Z,1.43
2023-02-18T12:02:42.091Z,1.50
2023-02-18T12:05:25.512Z,1.00
2023-02-18T12:08:08.045Z,1.70
2023-02-18T12:10:41.474Z,1.87
2023-02-18T12:13:09.017Z,1.93
2023-02-18T12:15:48.466Z,1.80
2023-02-18T12:18:15.991Z,1.60
2023-02-18T12:20:51.964Z,1.43
2023-02-18T12:23:22.323Z,1.73
2023-02-18T12:26:08.695Z,1.23
2023-02-18T12:28:51.039Z,0.90
2023-02-18T12:31:18.728Z,1.27
2023-02-18T12:34:07.405Z,1.48
2023-02-18T12:36:37.938Z,1.03
2023-02-18T12:39:08.416Z,1.13
2023-02-18T12:41:51.063Z,2.13
2023-02-18T12:44:22.267Z,1.60
2023-02-18T12:46:52.215Z,1.33
2023-02-18T12:49:26.081Z,1.40
2023-02-18T12:52:08.639Z,2.00
2023-02-18T12:54:47.782Z,2.40
2023-02-18T12:57:33.588Z,2.10
2023-02-18T13:00:22.533Z,2.00
2023-02-18T13:03:11.733Z,1.83
2023-02-18T13:05:42.263Z,1.67
2023-02-18T13:08:43.750Z,1.30
2023-02-18T13:11:14.781Z,1.50
2023-02-18T13:13:45.132Z,1.70
2023-02-18T13:16:12.727Z,2.03
2023-02-18T13:18:43.029Z,1.90
2023-02-18T13:21:10.551Z,2.13
2023-02-18T13:23:41.612Z,2.17
2023-02-18T13:26:09.573Z,2.10
2023-02-18T13:28:36.704Z,2.17
2023-02-18T13:31:22.501Z,2.17
2023-02-18T13:34:11.124Z,2.17
2023-02-18T13:36:41.449Z,2.10
2023-02-18T13:39:11.579Z,1.90
2023-02-18T13:41:39.092Z,2.70
2023-02-18T13:44:21.212Z,2.40
2023-02-18T13:46:54.265Z,3.43
2023-02-18T13:49:22.549Z,2.50
2023-02-18T13:51:50.146Z,2.40
2023-02-18T13:54:26.854Z,3.00
2023-02-18T13:57:01.105Z,2.50
2023-02-18T13:59:37.106Z,2.80
2023-02-18T14:02:23.372Z,2.40
2023-02-18T14:05:09.887Z,3.25
2023-02-18T14:07:37.475Z,3.00
2023-02-18T14:10:05.013Z,3.00
2023-02-18T14:12:53.704Z,2.90
2023-02-18T14:15:22.120Z,2.90
2023-02-18T14:17:52.107Z,2.77
2023-02-18T14:20:22.714Z,3.00
2023-02-18T14:22:50.251Z,3.30
2023-02-18T14:25:20.484Z,3.17
2023-02-18T14:27:48.055Z,3.65
2023-02-18T14:30:18.632Z,3.20
2023-02-18T14:32:46.100Z,3.63
2023-02-18T14:35:40.690Z,2.80
2023-02-18T14:38:23.052Z,3.10
2023-02-18T14:41:15.607Z,3.17
2023-02-18T14:44:01.122Z,2.97
2023-02-18T14:46:40.333Z,3.43
2023-02-18T14:49:35.334Z,3.10
2023-02-18T14:52:02.936Z,3.43
2023-02-18T14:54:30.461Z,3.00
2023-02-18T14:57:09.606Z,3.30
2023-02-18T14:59:39.876Z,3.40
2023-02-18T15:02:19.625Z,2.90
2023-02-18T15:04:47.166Z,3.00
2023-02-18T15:07:14.712Z,3.10
2023-02-18T15:09:48.182Z,4.12
2023-02-18T15:12:22.273Z,4.00
2023-02-18T15:14:48.944Z,3.67
2023-02-18T15:17:19.196Z,4.10
2023-02-18T15:19:49.401Z,2.80
2023-02-18T15:22:19.334Z,3.47
2023-02-18T15:24:46.921Z,3.33
2023-02-18T15:27:15.208Z,3.72
2023-02-18T15:29:42.752Z,3.53
2023-02-18T15:32:20.297Z,3.50
2023-02-18T15:34:47.666Z,3.20
2023-02-18T15:37:15.224Z,3.03
2023-02-18T15:39:42.784Z,3.20
2023-02-18T15:42:22.676Z,2.80
2023-02-18T15:44:50.250Z,3.17
2023-02-18T15:47:17.793Z,4.10
2023-02-18T15:49:45.340Z,2.90
2023-02-18T15:52:13.670Z,3.03
2023-02-18T15:54:41.232Z,3.23
2023-02-18T15:57:08.772Z,2.83
2023-02-18T15:59:36.355Z,3.00
2023-02-18T16:02:10.042Z,3.33
2023-02-18T16:04:40.739Z,3.17
2023-02-18T16:07:23.335Z,2.90
2023-02-18T16:09:50.908Z,3.13
2023-02-18T16:12:27.825Z,4.10
2023-02-18T16:14:55.404Z,3.43
2023-02-18T16:17:22.940Z,3.73
2023-02-18T16:20:04.911Z,3.50
2023-02-18T16:22:32.670Z,4.03
2023-02-18T16:25:00.218Z,4.10
2023-02-18T16:27:36.585Z,3.80
2023-02-18T16:30:23.265Z,3.73
2023-02-18T16:32:50.752Z,3.60
2023-02-18T16:35:19.066Z,3.13
2023-02-18T16:37:46.689Z,3.80
2023-02-18T16:40:23.575Z,4.17
2023-02-18T16:42:51.105Z,4.62
2023-02-18T16:45:18.691Z,4.03
2023-02-18T16:47:47.067Z,3.90
2023-02-18T16:50:18.227Z,4.63
2023-02-18T16:52:45.759Z,3.90
2023-02-18T16:55:16.980Z,4.13
2023-02-18T16:57:44.552Z,3.97
2023-02-18T17:00:12.097Z,4.80
2023-02-18T17:02:39.622Z,4.00
2023-02-18T17:05:11.877Z,6.00
2023-02-18T17:07:35.548Z,4.53
2023-02-18T17:10:03.072Z,4.33
2023-02-18T17:12:31.474Z,4.10
2023-02-18T17:14:59.764Z,5.00
2023-02-18T17:17:27.294Z,4.70
2023-02-18T17:19:54.867Z,4.53
2023-02-18T17:22:22.391Z,4.60
2023-02-18T17:24:49.916Z,3.80
2023-02-18T17:27:17.489Z,5.20
2023-02-18T17:29:45.028Z,4.77
2023-02-18T17:32:12.634Z,5.00
2023-02-18T17:34:40.147Z,4.93
2023-02-18T17:37:07.671Z,5.00
2023-02-18T17:39:35.963Z,4.40
2023-02-18T17:42:03.540Z,4.60
2023-02-18T17:44:31.086Z,4.90
2023-02-18T17:46:58.608Z,4.93
2023-02-18T17:49:26.186Z,5.93
2023-02-18T17:51:55.889Z,5.50
2023-02-18T17:54:22.030Z,5.30
2023-02-18T17:56:49.603Z,6.10
2023-02-18T17:59:17.132Z,5.80
2023-02-18T18:01:45.427Z,5.63
2023-02-18T18:04:15.944Z,6.43
2023-02-18T18:06:43.490Z,5.97
2023-02-18T18:09:10.967Z,6.43
2023-02-18T18:11:38.567Z,7.00
2023-02-18T18:14:06.098Z,6.73
2023-02-18T18:16:33.672Z,6.57
2023-02-18T18:19:01.975Z,6.50
2023-02-18T18:21:32.411Z,6.07
2023-02-18T18:23:59.960Z,8.60
2023-02-18T18:26:27.529Z,6.10
2023-02-18T18:28:55.068Z,6.63
2023-02-18T18:31:22.657Z,7.55
2023-02-18T18:33:50.199Z,7.83
2023-02-18T18:36:17.840Z,6.80
2023-02-18T18:38:46.112Z,8.13
2023-02-18T18:41:13.679Z,7.43
2023-02-18T18:43:41.233Z,6.90
2023-02-18T18:46:08.775Z,6.23
2023-02-18T18:48:37.083Z,6.37
2023-02-18T18:51:04.615Z,6.20
2023-02-18T18:53:32.177Z,6.37
2023-02-18T18:55:59.764Z,6.80
2023-02-18T18:58:27.298Z,6.63
2023-02-18T19:00:54.838Z,6.53
2023-02-18T19:03:22.407Z,10.37
2023-02-18T19:05:50.068Z,8.53
2023-02-18T19:08:18.260Z,7.50
2023-02-18T19:10:45.945Z,10.17
2023-02-18T19:13:28.413Z,7.47
2023-02-18T19:16:01.992Z,13.25
2023-02-18T19:18:29.469Z,6.50
2023-02-18T19:20:57.014Z,10.10
2023-02-18T19:23:25.371Z,6.70
2023-02-18T19:25:53.657Z,5.70
2023-02-18T19:28:21.969Z,6.20
2023-02-18T19:30:49.543Z,6.73
2023-02-18T19:33:17.072Z,7.70
2023-02-18T19:35:44.633Z,5.47
2023-02-18T19:38:12.215Z,7.17
2023-02-18T19:40:39.746Z,5.63
2023-02-18T19:43:07.311Z,4.83
2023-02-18T19:45:35.639Z,4.63
2023-02-18T19:48:03.168Z,4.93
2023-02-18T19:50:33.826Z,6.35
2023-02-18T19:53:01.401Z,5.67
2023-02-18T19:55:28.925Z,5.40
2023-02-18T19:57:56.462Z,4.43
2023-02-18T20:00:24.035Z,4.90
2023-02-18T20:02:51.651Z,5.07
2023-02-18T20:05:19.109Z,5.00
2023-02-18T20:07:46.714Z,4.93
2023-02-18T20:10:14.971Z,4.83
2023-02-18T20:12:42.521Z,4.93
2023-02-18T20:15:10.222Z,4.57
2023-02-18T20:17:37.745Z,5.30
2023-02-18T20:20:05.448Z,5.20
2023-02-18T20:22:33.040Z,5.43
2023-02-18T20:25:01.351Z,5.07
2023-02-18T20:27:28.861Z,4.80
2023-02-18T20:29:56.461Z,4.73
2023-02-18T20:32:24.056Z,4.57
2023-02-18T20:34:51.531Z,5.93
2023-02-18T20:37:19.260Z,4.33
2023-02-18T20:39:46.800Z,5.70
2023-02-18T20:42:16.902Z,4.53
2023-02-18T20:44:41.885Z,4.50
2023-02-18T20:47:09.469Z,4.13
2023-02-18T20:49:37.026Z,5.03
2023-02-18T20:52:04.577Z,4.67
2023-02-18T20:54:32.899Z,5.87
2023-02-18T20:57:00.424Z,4.97
2023-02-18T20:59:28.009Z,4.37
2023-02-18T21:01:55.630Z,4.27
2023-02-18T21:04:23.141Z,4.27
2023-02-18T21:06:50.714Z,4.33
2023-02-18T21:09:18.257Z,4.20
2023-02-18T21:11:45.762Z,3.87
2023-02-18T21:14:14.094Z,4.07
2023-02-18T21:16:41.618Z,4.03
2023-02-18T21:19:09.146Z,3.60
2023-02-18T21:21:36.758Z,3.47
2023-02-18T21:24:04.287Z,3.67
2023-02-18T21:26:32.585Z,3.80
2023-02-18T21:29:00.182Z,3.77
2023-02-18T21:31:30.695Z,3.80
2023-02-18T21:33:58.139Z,3.07
2023-02-18T21:36:25.710Z,3.83
2023-02-18T21:38:56.101Z,3.40
2023-02-18T21:41:23.617Z,3.17
2023-02-18T21:43:51.185Z,3.40
2023-02-18T21:46:27.649Z,3.50
2023-02-18T21:49:07.443Z,4.00
2023-02-18T21:51:56.400Z,3.30
2023-02-18T21:54:32.536Z,3.30
2023-02-18T21:57:00.848Z,4.30
2023-02-18T21:59:28.365Z,3.50
2023-02-18T22:01:55.969Z,3.17
2023-02-18T22:04:24.245Z,3.40
2023-02-18T22:06:51.770Z,3.53
2023-02-18T22:09:20.082Z,3.60
2023-02-18T22:11:47.607Z,3.40
2023-02-18T22:14:15.889Z,3.20
2023-02-18T22:16:44.257Z,3.57
2023-02-18T22:19:11.774Z,3.43
2023-02-18T22:21:39.339Z,4.20
2023-02-18T22:24:06.958Z,3.57
2023-02-18T22:26:35.255Z,3.73
2023-02-18T22:29:02.784Z,3.40
2023-02-18T22:31:31.167Z,3.30
2023-02-18T22:33:58.624Z,3.57
2023-02-18T22:36:26.180Z,3.50
2023-02-18T22:38:54.513Z,3.83
2023-02-18T22:41:22.046Z,3.70
2023-02-18T22:43:49.568Z,3.97
2023-02-18T22:46:17.171Z,4.07
2023-02-18T22:48:44.699Z,3.43
2023-02-18T22:51:15.385Z,3.50
2023-02-18T22:53:43.032Z,3.70
2023-02-18T22:56:10.576Z,3.63
2023-02-18T22:58:38.103Z,3.50
2023-02-18T23:01:05.795Z,3.50
2023-02-18T23:03:33.234Z,3.60
2023-02-18T23:06:03.594Z,4.80
2023-02-18T23:08:31.166Z,3.80
2023-02-18T23:11:04.650Z,4.55
2023-02-18T23:13:32.186Z,3.87
2023-02-18T23:15:59.823Z,3.67
2023-02-18T23:18:28.122Z,3.77
2023-02-18T23:21:19.688Z,3.80
2023-02-18T23:23:50.157Z,3.60
2023-02-18T23:26:17.684Z,3.90
2023-02-18T23:28:48.610Z,3.30
2023-02-18T23:31:19.061Z,4.50
2023-02-18T23:33:46.536Z,4.78
2023-02-18T23:36:14.110Z,4.60
2023-02-18T23:38:41.624Z,4.03
2023-02-18T23:41:09.509Z,4.13
2023-02-18T23:43:36.730Z,4.40
2023-02-18T23:46:04.286Z,3.93
2023-02-18T23:48:31.800Z,3.93
2023-02-18T23:51:02.536Z,4.37
2023-02-18T23:53:30.090Z,5.03
2023-02-18T23:56:15.568Z,4.47
2023-02-18T23:58:43.084Z,4.60
